Mount Holly, Ohio
Current Conditions -  °F | °C
As of 4:53 AM on Saturday 25 Oct 2014 (Local Time) from KMGY Reporting Station
Scattered Clouds Scattered Clouds  
Wind Chill: 49°   Ceiling: Unl
Heat Index: 49°   Visibility: 10mi
Dew Point: 43°   Wind: 3mph
Humidity: 80%   Direction: 180°S
Pressure: 29.99"   Gusts: NA
Location:  39.5416°N, 84.0704°W
Report Text: KMGY 250853Z AUTO 18003KT 10SM SCT100 09/06 A2999 RMK AO2 SLP155 T00940061 58007
Loading
Personal Weather Stations






























Interactive Weather Map
Tropical Storm Tracking
New forecast layout! Learn more

10-Day Weather Forecast

Advertisements
Track Severe Weather on mobile